createdAt,value
2022-07-29T05:37:15.436Z,97774.94
2022-07-29T05:39:48.981Z,97784.52
2022-07-29T05:42:18.174Z,97789.47
2022-07-29T05:44:50.961Z,97789.22
2022-07-29T05:47:20.760Z,97788.38
2022-07-29T05:49:50.573Z,97794.67
2022-07-29T05:52:20.213Z,97792.47
2022-07-29T05:54:51.521Z,97785.11
2022-07-29T05:57:23.771Z,97787.02
2022-07-29T05:59:55.414Z,97788.97
2022-07-29T06:02:26.878Z,97781.82
2022-07-29T06:05:03.704Z,97784.54
2022-07-29T06:07:34.844Z,97783.73
2022-07-29T06:10:09.871Z,97793.30
2022-07-29T06:12:40.550Z,97786.75
2022-07-29T06:20:43.001Z,97802.11
2022-07-29T06:23:12.874Z,97805.92
2022-07-29T06:25:43.715Z,97804.52
2022-07-29T06:28:13.483Z,97798.50
2022-07-29T06:30:43.219Z,97789.21
2022-07-29T06:33:16.950Z,97789.48
2022-07-29T06:35:55.021Z,97785.38
2022-07-29T06:38:30.860Z,97782.91
2022-07-29T06:41:02.472Z,97780.42
2022-07-29T06:43:50.760Z,97781.53
2022-07-29T06:46:10.805Z,97792.47
2022-07-29T06:48:40.808Z,97794.14
2022-07-29T06:51:10.668Z,97790.03
2022-07-29T06:53:40.240Z,97790.55
2022-07-29T06:56:11.845Z,97796.04
2022-07-29T06:58:41.494Z,97797.13
2022-07-29T07:01:11.253Z,97801.53
2022-07-29T07:03:43.591Z,97800.17
2022-07-29T07:06:15.205Z,97793.56
2022-07-29T07:08:44.739Z,97783.97
2022-07-29T07:11:14.499Z,97777.69
2022-07-29T07:13:44.248Z,97777.14
2022-07-29T07:16:14.002Z,97776.59
2022-07-29T07:18:43.977Z,97782.36
2022-07-29T07:21:19.238Z,97783.96
2022-07-29T07:23:48.612Z,97788.37
2022-07-29T07:26:18.811Z,97783.16
2022-07-29T07:28:48.693Z,97772.22
2022-07-29T07:31:18.534Z,97765.38
2022-07-29T07:33:51.441Z,97759.87
2022-07-29T07:36:21.008Z,97768.90
2022-07-29T07:38:51.101Z,97770.27
2022-07-29T07:41:22.643Z,97767.55
2022-07-29T07:43:52.371Z,97771.10
2022-07-29T07:46:22.546Z,97763.73
2022-07-29T07:48:58.688Z,97773.84
2022-07-29T07:51:33.332Z,97779.33
2022-07-29T07:54:03.227Z,97778.23
2022-07-29T07:56:35.415Z,97778.23
2022-07-29T07:59:04.837Z,97778.50
2022-07-29T08:01:55.802Z,97779.03
2022-07-29T08:04:09.409Z,97782.05
2022-07-29T08:06:39.388Z,97783.95
2022-07-29T08:09:28.097Z,97790.28
2022-07-29T08:14:10.780Z,97792.19
2022-07-29T08:16:42.943Z,97788.07
2022-07-29T08:19:13.102Z,97797.91
2022-07-29T08:21:47.535Z,97793.53
2022-07-29T08:24:35.195Z,97786.69
2022-07-29T08:27:12.918Z,97792.73
2022-07-29T08:29:36.360Z,97788.34
2022-07-29T08:32:07.995Z,97785.02
2022-07-29T08:34:37.828Z,97789.70
2022-07-29T08:37:07.620Z,97789.70
2022-07-29T08:39:37.297Z,97792.71
2022-07-29T08:42:07.706Z,97796.82
2022-07-29T08:44:37.336Z,97803.09
2022-07-29T08:47:07.158Z,97808.28
2022-07-29T08:49:37.702Z,97812.41
2022-07-29T08:52:07.559Z,97812.71
2022-07-29T08:54:40.193Z,97814.61
2022-07-29T08:57:09.840Z,97819.83
2022-07-29T08:59:39.746Z,97824.45
2022-07-29T09:02:10.227Z,97827.43
2022-07-29T09:04:39.993Z,97828.00
2022-07-29T09:07:09.736Z,97820.62
2022-07-29T09:09:40.842Z,97816.52
2022-07-29T09:12:10.652Z,97800.66
2022-07-29T09:14:40.511Z,97815.98
2022-07-29T09:17:10.317Z,97815.44
2022-07-29T09:19:45.454Z,97811.30
2022-07-29T09:22:11.986Z,97815.13
2022-07-29T09:24:49.048Z,97810.47
2022-07-29T09:27:23.454Z,97812.41
2022-07-29T09:30:03.888Z,97810.49
2022-07-29T09:32:33.537Z,97806.67
2022-07-29T09:35:25.510Z,97817.88
2022-07-29T09:37:56.037Z,97814.58
2022-07-29T09:40:27.260Z,97820.59
2022-07-29T09:42:58.685Z,97817.05
2022-07-29T09:45:33.928Z,97814.06
2022-07-29T09:48:08.250Z,97823.66
2022-07-29T09:50:41.888Z,97824.73
2022-07-29T09:53:11.859Z,97825.55
2022-07-29T09:55:53.985Z,97824.19
2022-07-29T09:58:24.394Z,97824.15
2022-07-29T10:00:56.516Z,97808.79
2022-07-29T10:03:27.084Z,97827.44
2022-07-29T10:06:10.097Z,97823.08
2022-07-29T10:08:39.759Z,97825.83
2022-07-29T10:11:13.866Z,97827.76
2022-07-29T10:13:43.166Z,97823.92
2022-07-29T10:16:14.054Z,97828.02
2022-07-29T10:18:45.357Z,97838.98
2022-07-29T10:21:34.791Z,97833.98
2022-07-29T10:23:47.434Z,97839.46
2022-07-29T10:26:17.080Z,97834.27
2022-07-29T10:28:47.004Z,97825.80
2022-07-29T10:31:34.552Z,97824.44
2022-07-29T10:34:12.897Z,97828.81
2022-07-29T10:36:54.129Z,97817.34
2022-07-29T10:39:44.390Z,97816.78
2022-07-29T10:42:19.903Z,97817.61
2022-07-29T10:44:50.048Z,97821.16
2022-07-29T10:47:27.656Z,97820.34
2022-07-29T10:50:05.241Z,97829.66
2022-07-29T10:53:00.545Z,97831.02
2022-07-29T10:55:42.964Z,97841.67
2022-07-29T10:58:21.250Z,97845.51
2022-07-29T11:00:51.766Z,97853.42
2022-07-29T11:03:49.292Z,97852.05
2022-07-29T11:06:15.352Z,97851.79
2022-07-29T11:08:45.522Z,97853.14
2022-07-29T11:11:29.804Z,97850.69
2022-07-29T11:13:58.448Z,97853.13
2022-07-29T11:16:28.320Z,97849.31
2022-07-29T11:19:26.456Z,97845.45
2022-07-29T11:21:55.127Z,97846.83
2022-07-29T11:24:30.226Z,97841.64
2022-07-29T11:27:21.728Z,97847.93
2022-07-29T11:29:56.027Z,97854.22
2022-07-29T11:32:29.516Z,97858.87
2022-07-29T11:35:37.954Z,97855.03
2022-07-29T11:38:28.838Z,97852.02
2022-07-29T11:41:33.122Z,97859.42
2022-07-29T11:44:03.363Z,97858.85
2022-07-29T11:46:51.500Z,97875.27
2022-07-29T11:49:32.244Z,97878.83
2022-07-29T11:52:00.022Z,97880.74
2022-07-29T11:54:32.026Z,97880.20
2022-07-29T11:57:02.276Z,97881.56
2022-07-29T11:59:33.646Z,97882.66
2022-07-29T12:02:33.248Z,97884.03
2022-07-29T12:04:35.135Z,97890.58
2022-07-29T12:09:40.325Z,97896.59
2022-07-29T12:12:07.041Z,97892.50
2022-07-29T12:14:44.101Z,97904.26
2022-07-29T12:17:32.771Z,97904.81
2022-07-29T12:20:07.110Z,97908.91
2022-07-29T12:22:39.791Z,97908.91
2022-07-29T12:25:32.231Z,97911.65
2022-07-29T12:27:42.940Z,97914.66
2022-07-29T12:30:14.412Z,97916.58
2022-07-29T12:32:49.524Z,97914.39
2022-07-29T12:35:22.222Z,97920.41
2022-07-29T12:37:53.256Z,97924.52
2022-07-29T12:40:25.309Z,97919.05
2022-07-29T12:43:23.387Z,97920.11
2022-07-29T12:45:55.390Z,97922.33
2022-07-29T12:48:41.548Z,97922.33
2022-07-29T12:51:11.780Z,97924.52
2022-07-29T12:53:41.502Z,97927.80
2022-07-29T12:56:40.658Z,97936.83
2022-07-29T12:58:50.846Z,97936.28
2022-07-29T13:01:19.871Z,97942.30
2022-07-29T13:03:59.808Z,97940.34
2022-07-29T13:06:45.792Z,97938.62
2022-07-29T13:09:23.871Z,97947.67
2022-07-29T13:11:55.413Z,97955.90
2022-07-29T13:14:41.167Z,97955.66
2022-07-29T13:17:25.525Z,97960.83
2022-07-29T13:19:56.314Z,97957.66
2022-07-29T13:22:27.115Z,97957.68
2022-07-29T13:25:00.353Z,97949.71
2022-07-29T13:27:31.800Z,97973.06
2022-07-29T13:30:02.434Z,97981.28
2022-07-29T13:32:32.374Z,97983.13
2022-07-29T13:35:05.316Z,97994.54
2022-07-29T13:37:36.575Z,98003.34
2022-07-29T13:40:06.676Z,98014.33
2022-07-29T13:42:36.482Z,98031.86
2022-07-29T13:45:06.642Z,98038.41
2022-07-29T13:47:36.325Z,98050.84
2022-07-29T13:50:07.059Z,98045.39
2022-07-29T13:52:36.858Z,98056.39
2022-07-29T13:55:07.103Z,98062.16
2022-07-29T13:57:37.253Z,98071.20
2022-07-29T14:00:08.109Z,98069.00
2022-07-29T14:02:37.982Z,98062.85
2022-07-29T14:05:09.138Z,98068.86
2022-07-29T14:07:40.389Z,98079.04
2022-07-29T14:10:10.528Z,98084.81
2022-07-29T14:12:40.463Z,98083.47
2022-07-29T14:15:10.710Z,98080.66
2022-07-29T14:17:40.388Z,98082.48
2022-07-29T14:20:10.693Z,98089.34
2022-07-29T14:22:42.632Z,98090.25
2022-07-29T14:25:14.853Z,98087.52
2022-07-29T14:28:04.927Z,98092.50
2022-07-29T14:30:39.825Z,98093.59
2022-07-29T14:33:09.722Z,98068.34
2022-07-29T14:35:41.171Z,98107.95
2022-07-29T14:38:10.840Z,98110.44
2022-07-29T14:40:40.523Z,98121.16
2022-07-29T14:43:10.161Z,98128.55
2022-07-29T14:45:39.908Z,98134.78
2022-07-29T14:48:11.814Z,98135.78
2022-07-29T14:50:41.452Z,98142.68
2022-07-29T14:53:11.046Z,98133.69
2022-07-29T14:55:41.149Z,98128.79
2022-07-29T14:58:16.015Z,98131.83
2022-07-29T15:00:42.370Z,98128.55
2022-07-29T15:03:12.238Z,98124.20
2022-07-29T15:05:43.505Z,98119.25
2022-07-29T15:08:13.173Z,98116.94
2022-07-29T15:10:42.844Z,98112.32
2022-07-29T15:13:12.507Z,98105.27
2022-07-29T15:15:42.980Z,98104.75
2022-07-29T15:18:12.541Z,98101.19
2022-07-29T15:20:42.357Z,98093.75
2022-07-29T15:23:13.701Z,98082.19
2022-07-29T15:25:43.380Z,98078.14
2022-07-29T15:28:13.439Z,98064.77
2022-07-29T15:30:43.079Z,98070.56
2022-07-29T15:33:12.859Z,98074.39
2022-07-29T15:35:42.686Z,98090.83
2022-07-29T15:38:12.355Z,98096.05
2022-07-29T15:40:46.204Z,98101.44
2022-07-29T15:43:15.865Z,98091.31
2022-07-29T15:45:47.318Z,98099.31
2022-07-29T15:48:19.897Z,98097.11
2022-07-29T15:50:49.591Z,98094.69
2022-07-29T15:53:19.452Z,98105.35
2022-07-29T15:55:49.139Z,98099.00
2022-07-29T15:58:21.794Z,98104.39
2022-07-29T16:00:51.862Z,98115.69
2022-07-29T16:03:23.169Z,98124.75
2022-07-29T16:05:53.713Z,98123.66
2022-07-29T16:08:27.922Z,98117.87
2022-07-29T16:10:58.085Z,98132.89
2022-07-29T16:13:28.487Z,98138.12
2022-07-29T16:16:02.751Z,98141.16
2022-07-29T16:18:36.635Z,98137.63
2022-07-29T16:21:06.521Z,98148.05
2022-07-29T16:23:36.205Z,98149.42
2022-07-29T16:26:07.180Z,98161.42
2022-07-29T16:28:37.063Z,98155.90
2022-07-29T16:31:08.743Z,98153.50
2022-07-29T16:33:54.426Z,98147.23
2022-07-29T16:36:11.279Z,98149.42
2022-07-29T16:38:47.392Z,98147.78
2022-07-29T16:41:16.662Z,98145.34
2022-07-29T16:43:47.525Z,98146.96
2022-07-29T16:46:18.777Z,98158.15
2022-07-29T16:48:50.313Z,98155.95
2022-07-29T16:51:21.591Z,98154.10
2022-07-29T16:53:51.383Z,98156.56
2022-07-29T16:56:21.113Z,98154.10
2022-07-29T16:58:50.893Z,98156.48
2022-07-29T17:01:20.666Z,98143.62
2022-07-29T17:04:09.235Z,98131.06
2022-07-29T17:06:43.152Z,98132.73
2022-07-29T17:09:14.828Z,98133.86
2022-07-29T17:11:52.609Z,98148.11
2022-07-29T17:14:23.407Z,98155.69
2022-07-29T17:17:00.495Z,98169.66
2022-07-29T17:19:30.215Z,98180.36
2022-07-29T17:22:12.976Z,98186.41
2022-07-29T17:24:34.530Z,98183.41
2022-07-29T17:27:04.293Z,98170.55
2022-07-29T17:29:38.270Z,98164.55
2022-07-29T17:32:09.974Z,98173.22
2022-07-29T17:34:40.050Z,98171.03
2022-07-29T17:37:11.723Z,98182.31
2022-07-29T17:39:43.072Z,98184.50
2022-07-29T17:42:16.052Z,98181.48
2022-07-29T17:44:46.520Z,98185.89
2022-07-29T17:47:16.740Z,98186.17
2022-07-29T17:49:47.979Z,98192.89
2022-07-29T17:52:19.036Z,98193.22
2022-07-29T17:54:49.974Z,98189.15
2022-07-29T17:57:19.793Z,98186.95
2022-07-29T17:59:49.359Z,98172.22
2022-07-29T18:02:19.329Z,98172.22
2022-07-29T18:04:50.822Z,98167.99
2022-07-29T18:07:22.145Z,98143.05
2022-07-29T18:09:51.834Z,98159.03
2022-07-29T18:12:23.224Z,98165.34
2022-07-29T18:14:53.845Z,98169.72
2022-07-29T18:17:34.474Z,98164.53
2022-07-29T18:19:59.774Z,98157.91
2022-07-29T18:22:29.594Z,98154.65
2022-07-29T18:25:00.187Z,98149.75
2022-07-29T18:27:36.772Z,98151.94
2022-07-29T18:30:07.952Z,98147.59
2022-07-29T18:32:37.854Z,98141.84
2022-07-29T18:35:08.113Z,98137.69
2022-07-29T18:38:01.917Z,98132.22
2022-07-29T18:40:11.383Z,98125.40
2022-07-29T18:42:42.537Z,98117.50
2022-07-29T18:45:19.325Z,98116.41
2022-07-29T18:47:43.927Z,98103.80
2022-07-29T18:50:15.346Z,98105.98
2022-07-29T18:52:46.562Z,98105.73
2022-07-29T18:55:16.246Z,98093.14
2022-07-29T18:57:53.722Z,98090.16
2022-07-29T19:00:18.055Z,98066.63
2022-07-29T19:02:48.088Z,98059.80
2022-07-29T19:05:17.799Z,98054.57
2022-07-29T19:07:47.656Z,98042.53
2022-07-29T19:10:17.458Z,98045.84
2022-07-29T19:12:47.364Z,98032.43
2022-07-29T19:15:19.963Z,98033.55
2022-07-29T19:17:48.844Z,98032.73
2022-07-29T19:20:19.656Z,98025.56
2022-07-29T19:22:49.493Z,98025.59
2022-07-29T19:25:20.498Z,98018.20
2022-07-29T19:27:50.307Z,98024.25
2022-07-29T19:30:20.071Z,98019.59
2022-07-29T19:32:49.850Z,98008.11
2022-07-29T19:35:28.500Z,98002.91
2022-07-29T19:37:58.494Z,98003.73
2022-07-29T19:40:28.437Z,98008.95
2022-07-29T19:42:58.441Z,98002.92
2022-07-29T19:45:28.491Z,98003.48
2022-07-29T19:48:01.572Z,98000.98
2022-07-29T19:50:29.828Z,97994.97
2022-07-29T19:52:59.562Z,97987.88
2022-07-29T19:55:29.435Z,97990.06
2022-07-29T19:57:59.938Z,97998.84
2022-07-29T20:00:29.978Z,97997.20
2022-07-29T20:03:00.678Z,97994.47
2022-07-29T20:05:30.567Z,97986.27
2022-07-29T20:08:00.192Z,97992.27
2022-07-29T20:10:29.783Z,97981.33
2022-07-29T20:12:59.443Z,97981.06
2022-07-29T20:15:29.471Z,97979.42
2022-07-29T20:17:59.137Z,97983.52
2022-07-29T20:20:30.593Z,97980.78
2022-07-29T20:23:00.454Z,97982.14
2022-07-29T20:25:30.262Z,97976.16
2022-07-29T20:27:59.935Z,97971.50
2022-07-29T20:30:30.409Z,97971.77
2022-07-29T20:33:01.301Z,97967.11
2022-07-29T20:35:31.222Z,97966.59
2022-07-29T20:38:01.256Z,97961.94
2022-07-29T20:40:31.749Z,97959.76
2022-07-29T20:43:01.302Z,97945.77
2022-07-29T20:45:31.156Z,97939.48
2022-07-29T20:48:00.828Z,97943.86
2022-07-29T20:50:30.588Z,97947.16
2022-07-29T20:53:01.208Z,97945.80
2022-07-29T20:55:30.835Z,97954.30
2022-07-29T20:58:00.507Z,97958.41
2022-07-29T21:00:30.173Z,97958.67
2022-07-29T21:03:00.079Z,97960.05
2022-07-29T21:05:29.909Z,97959.80
2022-07-29T21:07:59.710Z,97955.98
2022-07-29T21:10:30.351Z,97960.09
2022-07-29T21:13:01.878Z,97950.22
2022-07-29T21:15:32.543Z,97948.33
2022-07-29T21:18:05.475Z,97940.94
2022-07-29T21:20:35.041Z,97938.75
2022-07-29T21:23:04.924Z,97940.12
2022-07-29T21:25:35.775Z,97933.28
2022-07-29T21:28:23.567Z,97928.63
2022-07-29T21:30:53.240Z,97929.44
2022-07-29T21:33:23.063Z,97932.17
2022-07-29T21:36:20.225Z,97936.03
2022-07-29T21:38:24.362Z,97925.90
2022-07-29T21:40:56.539Z,97926.45
2022-07-29T21:43:27.393Z,97899.54
2022-07-29T21:45:58.258Z,97924.53
2022-07-29T21:48:29.032Z,97928.91
2022-07-29T21:50:58.785Z,97935.75
2022-07-29T21:53:30.631Z,97927.27
2022-07-29T21:56:02.935Z,97930.55
2022-07-29T21:58:34.390Z,97932.46
2022-07-29T22:01:04.258Z,97938.78
2022-07-29T22:03:34.126Z,97934.13
2022-07-29T22:06:03.788Z,97935.50
2022-07-29T22:08:33.364Z,97936.31
2022-07-29T22:11:03.975Z,97929.74
2022-07-29T22:13:37.751Z,97926.48
2022-07-29T22:16:06.817Z,97923.75
2022-07-29T22:18:36.495Z,97928.67
2022-07-29T22:21:06.266Z,97927.00
2022-07-29T22:23:38.398Z,97918.80
2022-07-29T22:26:09.504Z,97926.75
2022-07-29T22:28:39.239Z,97919.09
2022-07-29T22:31:10.397Z,97923.75
2022-07-29T22:33:40.450Z,97923.20
2022-07-29T22:36:10.304Z,97918.80
2022-07-29T22:38:39.874Z,97922.38
2022-07-29T22:41:09.692Z,97928.94
2022-07-29T22:43:41.401Z,97932.80
2022-07-29T22:46:12.023Z,97932.81
2022-07-29T22:48:41.909Z,97939.38
2022-07-29T22:51:11.677Z,97940.19
2022-07-29T22:53:41.259Z,97940.47
2022-07-29T22:56:11.121Z,97944.03
2022-07-29T22:58:40.826Z,97944.30
2022-07-29T23:01:10.539Z,97944.30
2022-07-29T23:03:40.523Z,97935.55
2022-07-29T23:06:11.812Z,97933.34
2022-07-29T23:08:41.380Z,97932.52
2022-07-29T23:11:11.086Z,97918.84
2022-07-29T23:13:40.757Z,97910.63
2022-07-29T23:16:11.770Z,97909.26
2022-07-29T23:18:43.891Z,97905.70
2022-07-29T23:21:16.378Z,97907.89
2022-07-29T23:23:46.442Z,97905.97
2022-07-29T23:26:17.741Z,97908.70
2022-07-29T23:28:47.442Z,97914.18
2022-07-29T23:31:21.003Z,97913.91
2022-07-29T23:33:50.844Z,97913.09
2022-07-29T23:36:21.600Z,97909.81
2022-07-29T23:38:51.270Z,97906.52
2022-07-29T23:41:22.211Z,97905.97
2022-07-29T23:43:52.881Z,97895.88
2022-07-29T23:46:24.011Z,97900.24
2022-07-29T23:48:53.843Z,97888.17
2022-07-29T23:51:24.534Z,97888.17
2022-07-29T23:53:55.112Z,97875.84
2022-07-29T23:56:27.221Z,97875.84
2022-07-29T23:58:59.167Z,97881.08
